createdAt,value
2022-11-03T00:01:15.317Z,10.67
2022-11-03T00:03:42.890Z,10.59
2022-11-03T00:06:11.767Z,10.21
2022-11-03T00:08:41.515Z,10.38
2022-11-03T00:11:11.326Z,10.35
2022-11-03T00:13:40.671Z,10.32
2022-11-03T00:16:09.539Z,10.47
2022-11-03T00:18:37.428Z,10.66
2022-11-03T00:21:06.438Z,10.52
2022-11-03T00:23:37.143Z,10.54
2022-11-03T00:26:06.748Z,10.72
2022-11-03T00:28:35.166Z,10.97
2022-11-03T00:31:06.759Z,11.05
2022-11-03T00:33:34.398Z,11.19
2022-11-03T00:36:02.598Z,11.28
2022-11-03T00:38:30.772Z,11.26
2022-11-03T00:41:01.264Z,11.31
2022-11-03T00:43:30.444Z,11.39
2022-11-03T00:45:58.100Z,11.41
2022-11-03T00:48:32.424Z,11.48
2022-11-03T00:51:04.581Z,11.52
2022-11-03T00:53:33.154Z,11.48
2022-11-03T00:56:02.320Z,11.37
2022-11-03T00:58:30.081Z,11.45
2022-11-03T01:01:02.582Z,11.49
2022-11-03T01:03:30.484Z,11.42
2022-11-03T01:06:15.574Z,11.30
2022-11-03T01:08:43.137Z,11.49
2022-11-03T01:11:31.650Z,11.56
2022-11-03T01:13:59.566Z,11.57
2022-11-03T01:16:27.651Z,11.61
2022-11-03T01:18:55.818Z,11.72
2022-11-03T01:21:23.481Z,11.78
2022-11-03T01:23:51.282Z,11.83
2022-11-03T01:26:20.326Z,11.79
2022-11-03T01:28:48.812Z,11.53
2022-11-03T01:31:18.411Z,11.66
2022-11-03T01:33:47.083Z,11.74
2022-11-03T01:36:15.939Z,11.77
2022-11-03T01:38:44.390Z,11.93
2022-11-03T01:41:14.905Z,11.87
2022-11-03T01:43:44.450Z,11.84
2022-11-03T01:46:19.268Z,11.90
2022-11-03T01:48:56.892Z,11.75
2022-11-03T01:51:27.908Z,11.73
2022-11-03T01:53:58.100Z,11.75
2022-11-03T01:56:27.219Z,11.87
2022-11-03T01:58:56.731Z,11.78
2022-11-03T02:01:24.613Z,11.90
2022-11-03T02:03:56.096Z,11.90
2022-11-03T02:06:26.962Z,11.75
2022-11-03T02:09:00.986Z,11.87
2022-11-03T02:11:46.249Z,11.81
2022-11-03T02:14:15.885Z,11.83
2022-11-03T02:16:48.767Z,11.67
2022-11-03T02:19:23.442Z,11.66
2022-11-03T02:21:59.791Z,11.75
2022-11-03T02:24:37.195Z,11.58
2022-11-03T02:27:06.147Z,11.92
2022-11-03T02:29:33.817Z,11.91
2022-11-03T02:32:08.112Z,11.79
2022-11-03T02:34:43.382Z,11.70
2022-11-03T02:37:16.393Z,11.71
2022-11-03T02:39:47.812Z,11.67
2022-11-03T02:42:20.043Z,11.31
2022-11-03T02:44:48.857Z,11.09
2022-11-03T02:47:19.092Z,10.36
2022-11-03T02:49:48.258Z,10.15
2022-11-03T02:52:37.734Z,10.38
2022-11-03T02:55:13.372Z,9.76
2022-11-03T02:57:49.893Z,9.39
2022-11-03T03:00:18.177Z,9.61
2022-11-03T03:02:56.206Z,9.08
2022-11-03T03:05:27.344Z,9.13
2022-11-03T03:08:00.878Z,9.21
2022-11-03T03:10:33.532Z,9.58
2022-11-03T03:13:04.810Z,9.25
2022-11-03T03:15:41.724Z,8.98
2022-11-03T03:18:17.464Z,9.04
2022-11-03T03:20:53.234Z,9.46
2022-11-03T03:23:32.609Z,9.72
2022-11-03T03:26:04.730Z,9.63
2022-11-03T03:28:37.995Z,9.82
2022-11-03T03:31:09.859Z,9.46
2022-11-03T03:33:42.047Z,9.73
2022-11-03T03:36:15.517Z,9.71
2022-11-03T03:38:47.367Z,9.93
2022-11-03T03:41:21.969Z,10.19
2022-11-03T03:43:54.587Z,10.37
2022-11-03T03:46:25.039Z,10.43
2022-11-03T03:48:52.616Z,10.43
2022-11-03T03:51:24.030Z,10.53
2022-11-03T03:53:53.073Z,10.11
2022-11-03T03:56:24.672Z,9.71
2022-11-03T03:58:53.562Z,9.74
2022-11-03T04:01:21.228Z,9.63
2022-11-03T04:03:49.098Z,10.10
2022-11-03T04:06:16.741Z,9.91
2022-11-03T04:08:44.720Z,10.08
2022-11-03T04:11:29.909Z,10.12
2022-11-03T04:14:17.056Z,9.87
2022-11-03T04:17:02.081Z,9.76
2022-11-03T04:19:47.393Z,9.59
2022-11-03T04:22:17.616Z,9.45
2022-11-03T04:24:46.409Z,9.85
2022-11-03T04:27:27.775Z,10.14
2022-11-03T04:29:59.167Z,10.30
2022-11-03T04:32:27.106Z,10.19
2022-11-03T04:34:55.077Z,8.99
2022-11-03T04:37:23.128Z,8.45
2022-11-03T04:39:50.756Z,8.36
2022-11-03T04:42:20.464Z,8.51
2022-11-03T04:44:49.250Z,8.80
2022-11-03T04:47:19.521Z,8.82
2022-11-03T04:49:48.514Z,8.76
2022-11-03T04:52:17.946Z,8.93
2022-11-03T04:54:47.517Z,9.08
2022-11-03T04:57:17.057Z,9.02
2022-11-03T04:59:48.411Z,9.07
2022-11-03T05:02:20.057Z,9.13
2022-11-03T05:04:47.844Z,8.70
2022-11-03T05:07:25.408Z,8.21
2022-11-03T05:09:53.232Z,8.01
2022-11-03T05:12:21.687Z,8.47
2022-11-03T05:14:51.901Z,8.70
2022-11-03T05:17:27.030Z,8.49
2022-11-03T05:19:58.824Z,8.57
2022-11-03T05:22:30.338Z,8.28
2022-11-03T05:25:03.574Z,8.05
2022-11-03T05:27:31.427Z,8.26
2022-11-03T05:30:01.429Z,8.55
2022-11-03T05:32:35.180Z,8.82
2022-11-03T05:35:03.491Z,8.79
2022-11-03T05:37:33.643Z,8.75
2022-11-03T05:40:04.967Z,8.89
2022-11-03T05:42:38.694Z,8.95
2022-11-03T05:45:16.967Z,8.92
2022-11-03T05:47:45.902Z,8.82
2022-11-03T05:50:20.893Z,8.91
2022-11-03T05:52:51.588Z,8.74
2022-11-03T05:55:27.691Z,8.97
2022-11-03T05:57:58.371Z,9.08
2022-11-03T06:00:29.272Z,8.77
2022-11-03T06:02:59.585Z,8.70
2022-11-03T06:05:28.793Z,8.90
2022-11-03T06:07:57.517Z,8.70
2022-11-03T06:10:27.348Z,8.49
2022-11-03T06:13:00.327Z,7.56
2022-11-03T06:15:32.792Z,7.64
2022-11-03T06:18:11.234Z,8.16
2022-11-03T06:20:38.800Z,7.97
2022-11-03T06:23:10.499Z,8.06
2022-11-03T06:25:41.842Z,8.15
2022-11-03T06:28:16.283Z,8.42
2022-11-03T06:30:44.091Z,8.16
2022-11-03T06:33:16.464Z,8.57
2022-11-03T06:35:45.122Z,8.85
2022-11-03T06:38:20.766Z,9.06
2022-11-03T06:40:51.048Z,9.31
2022-11-03T06:43:22.652Z,9.53
2022-11-03T06:45:53.015Z,9.86
2022-11-03T06:48:27.617Z,9.67
2022-11-03T06:50:56.902Z,9.62
2022-11-03T06:53:30.527Z,9.60
2022-11-03T06:55:58.406Z,9.72
2022-11-03T06:58:29.937Z,9.71
2022-11-03T07:01:03.616Z,10.16
2022-11-03T07:03:37.472Z,10.47
2022-11-03T07:06:16.165Z,10.66
2022-11-03T07:08:45.966Z,10.46
2022-11-03T07:11:18.332Z,10.57
2022-11-03T07:13:47.373Z,10.79
2022-11-03T07:16:19.213Z,10.88
2022-11-03T07:18:48.741Z,10.83
2022-11-03T07:21:42.231Z,11.03
2022-11-03T07:24:17.388Z,11.32
2022-11-03T07:26:45.112Z,11.38
2022-11-03T07:29:21.034Z,11.81
2022-11-03T07:31:49.376Z,11.92
2022-11-03T07:34:22.954Z,12.18
2022-11-03T07:36:55.624Z,12.03
2022-11-03T07:39:23.407Z,11.96
2022-11-03T07:41:51.883Z,11.22
2022-11-03T07:44:21.655Z,10.61
2022-11-03T07:46:50.659Z,10.29
2022-11-03T07:49:27.704Z,9.67
2022-11-03T07:51:57.179Z,9.02
2022-11-03T07:54:27.591Z,9.17
2022-11-03T07:56:59.115Z,8.94
2022-11-03T07:59:31.936Z,9.68
2022-11-03T08:02:00.894Z,9.93
2022-11-03T08:04:32.576Z,10.66
2022-11-03T08:07:00.175Z,10.74
2022-11-03T08:09:28.050Z,11.55
2022-11-03T08:11:55.586Z,11.67
2022-11-03T08:14:23.142Z,11.98
2022-11-03T08:16:50.669Z,12.43
2022-11-03T08:19:18.193Z,12.70
2022-11-03T08:21:47.082Z,13.25
2022-11-03T08:24:14.607Z,13.17
2022-11-03T08:26:42.129Z,13.17
2022-11-03T08:29:09.949Z,12.99
2022-11-03T08:31:37.500Z,11.60
2022-11-03T08:34:05.068Z,12.24
2022-11-03T08:36:32.670Z,12.37
2022-11-03T08:39:01.628Z,12.87
2022-11-03T08:41:29.162Z,13.02
2022-11-03T08:43:56.828Z,13.23
2022-11-03T08:46:24.371Z,13.72
2022-11-03T08:48:51.937Z,13.94
2022-11-03T08:51:19.522Z,13.84
2022-11-03T08:53:50.507Z,14.01
2022-11-03T08:56:22.349Z,13.32
2022-11-03T08:58:50.755Z,12.61
2022-11-03T09:01:18.648Z,12.86
2022-11-03T09:03:46.276Z,12.43
2022-11-03T09:06:14.574Z,12.83
2022-11-03T09:11:30.986Z,13.31
2022-11-03T09:13:58.552Z,13.66
2022-11-03T09:16:26.539Z,14.27
2022-11-03T09:18:54.167Z,13.20
2022-11-03T09:21:21.696Z,14.29
2022-11-03T09:23:49.253Z,14.73
2022-11-03T09:26:16.896Z,15.99
2022-11-03T09:28:45.905Z,17.65
2022-11-03T09:31:13.786Z,18.93
2022-11-03T09:33:41.347Z,19.16
2022-11-03T09:36:09.440Z,18.35
2022-11-03T09:38:37.038Z,17.65
2022-11-03T09:41:13.563Z,17.43
2022-11-03T09:43:54.900Z,16.57
2022-11-03T09:46:22.426Z,16.31
2022-11-03T09:48:49.981Z,16.57
2022-11-03T09:51:21.715Z,16.47
2022-11-03T09:53:49.842Z,15.82
2022-11-03T09:56:20.375Z,15.10
2022-11-03T09:58:53.073Z,14.50
2022-11-03T10:01:23.573Z,14.43
2022-11-03T10:03:51.301Z,14.40
2022-11-03T10:06:18.908Z,14.31
2022-11-03T10:08:48.282Z,14.83
2022-11-03T10:11:16.118Z,14.86
2022-11-03T10:13:48.820Z,14.47
2022-11-03T10:16:19.530Z,14.83
2022-11-03T10:18:48.567Z,14.88
2022-11-03T10:21:17.981Z,14.53
2022-11-03T10:23:45.789Z,14.48
2022-11-03T10:26:16.394Z,14.63
2022-11-03T10:28:59.238Z,14.69
2022-11-03T10:31:34.487Z,14.57
2022-11-03T10:34:04.140Z,14.65
2022-11-03T10:36:34.233Z,14.52
2022-11-03T10:39:30.660Z,14.15
2022-11-03T10:41:59.919Z,14.44
2022-11-03T10:44:29.179Z,14.76
2022-11-03T10:46:58.336Z,14.64
2022-11-03T10:49:26.366Z,14.69
2022-11-03T10:51:56.103Z,14.44
2022-11-03T10:54:26.285Z,14.25
2022-11-03T10:56:54.054Z,14.55
2022-11-03T10:59:25.272Z,14.90
2022-11-03T11:01:53.269Z,14.99
2022-11-03T11:04:21.985Z,15.47
2022-11-03T11:06:49.792Z,15.92
2022-11-03T11:09:25.484Z,16.45
2022-11-03T11:12:05.316Z,16.72
2022-11-03T11:14:39.239Z,17.02
2022-11-03T11:17:07.377Z,16.72
2022-11-03T11:20:05.245Z,17.05
2022-11-03T11:22:32.770Z,17.13
2022-11-03T11:25:02.454Z,16.83
2022-11-03T11:27:58.941Z,17.04
2022-11-03T11:31:03.578Z,17.51
2022-11-03T11:33:33.073Z,17.80
2022-11-03T11:36:20.040Z,18.29
2022-11-03T11:39:05.846Z,18.76
2022-11-03T11:42:11.974Z,19.83
2022-11-03T11:45:02.942Z,19.87
2022-11-03T11:47:43.693Z,19.85
2022-11-03T11:50:23.259Z,20.09
2022-11-03T11:52:56.837Z,20.36
2022-11-03T11:55:30.966Z,20.25
2022-11-03T11:58:00.287Z,19.90
2022-11-03T12:00:31.292Z,19.86
2022-11-03T12:03:00.871Z,19.99
2022-11-03T12:05:32.063Z,19.20
2022-11-03T12:07:59.797Z,19.35
2022-11-03T12:10:28.794Z,19.91
2022-11-03T12:12:57.602Z,19.28
2022-11-03T12:15:55.169Z,19.34
2022-11-03T12:18:38.923Z,18.97
2022-11-03T12:21:09.661Z,18.84
2022-11-03T12:23:41.107Z,18.65
2022-11-03T12:26:17.390Z,18.11
2022-11-03T12:28:45.411Z,17.85
2022-11-03T12:31:14.281Z,18.39
2022-11-03T12:33:41.829Z,18.61
2022-11-03T12:36:10.165Z,18.65
2022-11-03T12:38:37.749Z,18.10
2022-11-03T12:41:19.361Z,18.28
2022-11-03T12:43:47.112Z,18.15
2022-11-03T12:46:16.369Z,18.18
2022-11-03T12:48:44.773Z,18.55
2022-11-03T12:51:13.765Z,18.74
2022-11-03T12:53:42.026Z,18.49
2022-11-03T12:56:10.516Z,18.24
2022-11-03T12:58:38.432Z,17.49
2022-11-03T13:01:06.473Z,17.25
2022-11-03T13:03:36.533Z,16.89
2022-11-03T13:06:05.593Z,16.99
2022-11-03T13:08:33.181Z,16.59
2022-11-03T13:11:00.901Z,16.23
2022-11-03T13:13:28.830Z,16.40
2022-11-03T13:15:56.358Z,16.61
2022-11-03T13:18:23.890Z,16.84
2022-11-03T13:20:52.784Z,16.69
2022-11-03T13:23:22.996Z,16.14
2022-11-03T13:25:50.974Z,15.88
2022-11-03T13:28:18.584Z,15.92
2022-11-03T13:30:46.137Z,15.59
2022-11-03T13:33:13.682Z,15.66
2022-11-03T13:35:41.246Z,15.76
2022-11-03T13:38:10.165Z,15.71
2022-11-03T13:43:25.519Z,14.91
2022-11-03T13:45:53.891Z,14.70
2022-11-03T13:49:19.970Z,14.70
2022-11-03T13:51:11.947Z,14.64
2022-11-03T13:56:28.732Z,14.88
2022-11-03T14:01:44.069Z,14.97
2022-11-03T14:06:59.704Z,14.86
2022-11-03T14:09:29.177Z,15.13
2022-11-03T14:12:14.523Z,14.80
2022-11-03T14:14:42.247Z,14.60
2022-11-03T14:17:09.873Z,14.63
2022-11-03T14:19:43.739Z,14.49
2022-11-03T14:22:13.663Z,14.62
2022-11-03T14:24:42.545Z,14.49
2022-11-03T14:27:10.072Z,14.43
2022-11-03T14:29:37.597Z,14.52
2022-11-03T14:32:05.521Z,14.36
2022-11-03T14:34:33.283Z,14.38
2022-11-03T14:37:01.250Z,14.26
2022-11-03T14:39:29.258Z,14.25
2022-11-03T14:42:06.344Z,14.31
2022-11-03T14:44:35.473Z,14.57
2022-11-03T14:47:04.758Z,14.78
2022-11-03T14:49:33.585Z,14.71
2022-11-03T14:52:02.567Z,14.45
2022-11-03T14:54:31.172Z,14.49
2022-11-03T14:57:00.337Z,14.55
2022-11-03T14:59:27.943Z,14.62
2022-11-03T15:01:56.459Z,14.74
2022-11-03T15:04:24.355Z,14.94
2022-11-03T15:06:51.921Z,14.92
2022-11-03T15:09:19.669Z,15.01
2022-11-03T15:11:47.670Z,14.94
2022-11-03T15:14:16.575Z,14.95
2022-11-03T15:16:46.095Z,14.91
2022-11-03T15:19:14.070Z,14.91
2022-11-03T15:21:41.645Z,14.71
2022-11-03T15:26:56.932Z,14.38
2022-11-03T15:29:25.850Z,14.32
2022-11-03T15:31:53.376Z,14.25
2022-11-03T15:34:20.902Z,14.21
2022-11-03T15:36:48.472Z,14.04
2022-11-03T15:39:16.077Z,13.82
2022-11-03T15:41:43.583Z,13.91
2022-11-03T15:44:11.088Z,14.01
2022-11-03T15:46:39.930Z,13.96
2022-11-03T15:49:07.497Z,13.93
2022-11-03T15:51:35.009Z,13.65
2022-11-03T15:54:03.209Z,13.52
2022-11-03T15:56:31.285Z,13.44
2022-11-03T15:58:58.832Z,13.42
2022-11-03T16:01:26.452Z,13.31
2022-11-03T16:03:55.394Z,13.36
2022-11-03T16:06:40.274Z,13.38
2022-11-03T16:09:10.496Z,13.26
2022-11-03T16:11:38.028Z,13.37
2022-11-03T16:14:05.564Z,13.36
2022-11-03T16:16:33.087Z,13.38
2022-11-03T16:19:02.079Z,13.05
2022-11-03T16:21:29.775Z,12.92
2022-11-03T16:23:57.359Z,13.02
2022-11-03T16:26:24.921Z,12.93
2022-11-03T16:28:52.475Z,12.79
2022-11-03T16:31:20.039Z,12.92
2022-11-03T16:33:47.584Z,12.97
2022-11-03T16:36:16.586Z,12.84
2022-11-03T16:38:44.204Z,12.61
2022-11-03T16:41:11.777Z,12.58
2022-11-03T16:43:39.522Z,12.56
2022-11-03T16:46:07.115Z,12.55
2022-11-03T16:48:34.923Z,12.46
2022-11-03T16:51:02.416Z,12.32
2022-11-03T16:53:31.267Z,12.26
2022-11-03T16:55:58.844Z,12.37
2022-11-03T16:58:26.446Z,12.28
2022-11-03T17:00:54.030Z,12.21
2022-11-03T17:03:21.595Z,12.28
2022-11-03T17:05:49.125Z,12.30
2022-11-03T17:08:50.782Z,12.57
2022-11-03T17:11:05.730Z,12.73
2022-11-03T17:13:33.325Z,12.93
2022-11-03T17:16:00.927Z,12.97
2022-11-03T17:18:28.486Z,13.18
2022-11-03T17:20:56.025Z,13.24
2022-11-03T17:23:23.583Z,13.19
2022-11-03T17:25:51.175Z,13.22
2022-11-03T17:28:20.054Z,12.90
2022-11-03T17:30:48.005Z,12.89
2022-11-03T17:33:19.628Z,12.64
2022-11-03T17:35:47.686Z,12.82
2022-11-03T17:38:17.194Z,12.94
2022-11-03T17:40:46.048Z,12.83
2022-11-03T17:43:21.929Z,12.71
2022-11-03T17:45:49.766Z,12.42
2022-11-03T17:48:18.353Z,12.27
2022-11-03T17:50:47.922Z,12.09
2022-11-03T17:53:22.433Z,11.96
2022-11-03T17:56:08.832Z,12.17
2022-11-03T17:58:46.269Z,11.98
2022-11-03T18:01:21.074Z,12.15
2022-11-03T18:03:48.722Z,11.98
2022-11-03T18:06:19.201Z,12.07
2022-11-03T18:08:47.475Z,12.04
2022-11-03T18:11:30.746Z,12.01
2022-11-03T18:14:00.148Z,12.34
2022-11-03T18:16:27.831Z,12.43
2022-11-03T18:18:55.394Z,12.30
2022-11-03T18:21:24.322Z,12.32
2022-11-03T18:23:51.878Z,12.30
2022-11-03T18:26:21.195Z,12.77
2022-11-03T18:28:50.332Z,12.91
2022-11-03T18:31:24.459Z,12.96
2022-11-03T18:33:52.730Z,12.98
2022-11-03T18:36:21.089Z,12.99
2022-11-03T18:38:49.305Z,13.04
2022-11-03T18:41:36.263Z,13.19
2022-11-03T18:44:07.708Z,13.19
2022-11-03T18:46:36.600Z,13.19
2022-11-03T18:49:04.200Z,13.11
2022-11-03T18:51:31.818Z,13.18
2022-11-03T18:53:59.950Z,13.30
2022-11-03T18:56:28.367Z,13.36
2022-11-03T18:58:58.197Z,13.25
2022-11-03T19:01:27.459Z,13.03
2022-11-03T19:03:57.341Z,13.26
2022-11-03T19:06:25.271Z,13.38
2022-11-03T19:08:59.490Z,13.53
2022-11-03T19:11:28.005Z,13.60
2022-11-03T19:13:55.729Z,13.50
2022-11-03T19:16:24.876Z,13.59
2022-11-03T19:18:53.263Z,13.59
2022-11-03T19:21:24.378Z,13.44
2022-11-03T19:23:58.090Z,13.10
2022-11-03T19:26:30.264Z,13.19
2022-11-03T19:29:02.099Z,13.32
2022-11-03T19:31:33.956Z,13.27
2022-11-03T19:34:02.073Z,13.32
2022-11-03T19:36:31.460Z,13.27
2022-11-03T19:39:00.183Z,13.26
2022-11-03T19:41:45.557Z,13.25
2022-11-03T19:44:14.426Z,13.17
2022-11-03T19:46:42.950Z,13.32
2022-11-03T19:49:14.563Z,13.36
2022-11-03T19:51:43.689Z,13.20
2022-11-03T19:54:16.428Z,12.99
2022-11-03T19:56:43.985Z,12.81
2022-11-03T19:59:13.363Z,12.89
2022-11-03T20:01:41.051Z,13.00
2022-11-03T20:04:09.494Z,12.91
2022-11-03T20:06:38.171Z,12.85
2022-11-03T20:09:08.471Z,13.18
2022-11-03T20:11:36.593Z,13.10
2022-11-03T20:14:05.037Z,12.90
2022-11-03T20:16:32.617Z,12.98
2022-11-03T20:19:00.164Z,13.26
2022-11-03T20:21:34.061Z,13.52
2022-11-03T20:24:02.292Z,13.62
2022-11-03T20:26:31.385Z,13.41
2022-11-03T20:28:59.820Z,13.59
2022-11-03T20:31:27.397Z,13.59
2022-11-03T20:33:54.908Z,13.63
2022-11-03T20:36:22.792Z,13.71
2022-11-03T20:38:53.265Z,13.78
2022-11-03T20:41:21.076Z,13.70
2022-11-03T20:43:49.990Z,13.86
2022-11-03T20:46:23.610Z,13.98
2022-11-03T20:48:51.639Z,13.92
2022-11-03T20:51:21.267Z,13.97
2022-11-03T20:53:49.265Z,14.02
2022-11-03T20:56:19.779Z,13.93
2022-11-03T20:58:48.047Z,13.81
2022-11-03T21:01:19.391Z,13.83
2022-11-03T21:04:02.583Z,13.76
2022-11-03T21:06:32.350Z,13.92
2022-11-03T21:09:00.478Z,13.88
2022-11-03T21:11:31.044Z,14.02
2022-11-03T21:14:00.297Z,13.94
2022-11-03T21:16:48.128Z,14.09
2022-11-03T21:19:35.178Z,14.09
2022-11-03T21:22:03.204Z,14.09
2022-11-03T21:24:30.749Z,13.93
2022-11-03T21:26:58.287Z,14.04
2022-11-03T21:29:53.466Z,13.93
2022-11-03T21:32:17.034Z,13.83
2022-11-03T21:34:45.091Z,13.94
2022-11-03T21:37:15.135Z,13.95
2022-11-03T21:39:43.003Z,13.99
2022-11-03T21:42:28.494Z,13.97
2022-11-03T21:44:56.034Z,13.94
2022-11-03T21:47:25.675Z,13.96
2022-11-03T21:49:52.673Z,14.07
2022-11-03T21:52:31.584Z,14.06
2022-11-03T21:55:00.165Z,13.90
2022-11-03T21:57:28.418Z,13.75
2022-11-03T21:59:58.599Z,13.63
2022-11-03T22:02:29.985Z,13.53
2022-11-03T22:04:57.897Z,13.68
2022-11-03T22:07:25.759Z,13.62
2022-11-03T22:09:53.278Z,13.52
2022-11-03T22:12:20.868Z,13.75
2022-11-03T22:15:06.061Z,13.76
2022-11-03T22:17:35.243Z,13.71
2022-11-03T22:20:20.532Z,13.73
2022-11-03T22:23:05.693Z,13.66
2022-11-03T22:25:50.659Z,13.75
2022-11-03T22:28:18.450Z,13.80
2022-11-03T22:31:03.881Z,13.74
2022-11-03T22:33:52.770Z,13.72
2022-11-03T22:36:25.586Z,13.74
2022-11-03T22:39:10.739Z,13.46
2022-11-03T22:41:55.773Z,13.42
2022-11-03T22:44:55.706Z,13.59
2022-11-03T22:47:23.288Z,13.23
2022-11-03T22:49:52.171Z,13.27
2022-11-03T22:52:19.683Z,13.04
2022-11-03T22:54:46.222Z,13.10
2022-11-03T22:57:14.102Z,13.12
2022-11-03T22:59:41.873Z,13.07
2022-11-03T23:02:27.189Z,13.35
2022-11-03T23:04:56.117Z,13.47
2022-11-03T23:07:28.442Z,13.60
2022-11-03T23:09:59.131Z,13.51
2022-11-03T23:12:26.659Z,13.28
2022-11-03T23:15:11.893Z,13.42
2022-11-03T23:17:56.864Z,13.14
2022-11-03T23:20:43.086Z,13.20
2022-11-03T23:23:30.646Z,13.35
2022-11-03T23:25:57.202Z,13.38
2022-11-03T23:28:24.776Z,13.33
2022-11-03T23:30:52.311Z,13.41
2022-11-03T23:33:19.829Z,13.68
2022-11-03T23:35:48.702Z,13.87
2022-11-03T23:38:16.251Z,13.70
2022-11-03T23:40:43.777Z,12.86
2022-11-03T23:43:11.280Z,12.96
2022-11-03T23:45:56.530Z,12.72
2022-11-03T23:48:44.177Z,12.45
2022-11-03T23:51:13.612Z,12.53
2022-11-03T23:53:41.127Z,12.58
2022-11-03T23:56:27.158Z,12.55
2022-11-03T23:58:55.020Z,12.37
